createdAt,value
2022-10-22T00:04:52.336Z,98001.00
2022-10-22T00:16:22.706Z,97985.00
2022-10-22T00:19:15.883Z,97986.00
2022-10-22T00:21:58.863Z,97979.00
2022-10-22T00:24:46.040Z,97981.00
2022-10-22T00:27:28.343Z,97984.00
2022-10-22T00:34:53.336Z,97987.00
2022-10-22T00:41:45.171Z,97986.00
2022-10-22T00:48:35.130Z,97973.00
2022-10-22T00:55:24.649Z,97938.00
2022-10-22T00:58:35.045Z,97922.00
2022-10-22T01:01:52.986Z,97927.00
2022-10-22T01:04:55.391Z,97942.00
2022-10-22T01:07:45.565Z,97945.00
2022-10-22T01:14:46.309Z,97993.00
2022-10-22T01:17:41.582Z,97982.00
2022-10-22T01:20:40.151Z,97984.00
2022-10-22T01:23:51.901Z,97983.00
2022-10-22T01:26:45.683Z,97964.00
2022-10-22T01:29:43.899Z,97972.00
2022-10-22T01:44:58.987Z,97970.00
2022-10-22T01:48:44.606Z,97962.00
2022-10-22T02:00:08.562Z,97921.00
2022-10-22T02:07:10.868Z,97883.00
2022-10-22T02:09:46.342Z,97901.00
2022-10-22T02:12:33.663Z,97906.00
2022-10-22T02:15:12.125Z,97922.00
2022-10-22T02:18:05.044Z,97924.00
2022-10-22T02:21:02.750Z,97918.00
2022-10-22T02:23:38.347Z,97919.00
2022-10-22T02:26:22.475Z,97938.00
2022-10-22T02:29:05.065Z,97953.00
2022-10-22T02:32:05.962Z,97956.00
2022-10-22T02:34:47.395Z,97963.00
2022-10-22T02:37:29.293Z,97959.00
2022-10-22T02:40:11.857Z,97966.00
2022-10-22T02:42:52.389Z,97982.00
2022-10-22T02:45:34.058Z,97977.00
2022-10-22T02:48:12.228Z,97967.00
2022-10-22T02:51:09.682Z,97982.00
2022-10-22T02:53:57.470Z,97972.00
2022-10-22T02:56:32.268Z,97953.00
2022-10-22T02:59:17.787Z,97994.00
2022-10-22T03:10:21.865Z,97992.00
2022-10-22T03:13:50.855Z,97985.00
2022-10-22T03:16:45.740Z,97991.00
2022-10-22T03:19:21.927Z,97983.00
2022-10-22T03:22:01.482Z,97994.00
2022-10-22T03:24:55.885Z,97955.00
2022-10-22T03:27:37.374Z,97954.00
2022-10-22T03:30:15.705Z,97942.00
2022-10-22T03:33:04.390Z,97956.00
2022-10-22T03:35:45.776Z,97944.00
2022-10-22T03:38:21.620Z,97912.00
2022-10-22T03:41:16.353Z,97908.00
2022-10-22T03:43:54.402Z,97893.00
2022-10-22T03:46:33.486Z,97902.00
2022-10-22T03:50:18.959Z,97912.00
2022-10-22T03:52:54.152Z,97909.00
2022-10-22T03:59:45.471Z,97926.00
2022-10-22T04:02:19.887Z,97922.00
2022-10-22T04:04:54.213Z,97930.00
2022-10-22T04:07:33.587Z,97926.00
2022-10-22T04:10:09.672Z,97920.00
2022-10-22T04:12:45.421Z,97929.00
2022-10-22T04:15:22.158Z,97924.00
2022-10-22T04:30:29.878Z,97913.00
2022-10-22T04:41:26.777Z,97949.00
2022-10-22T04:44:45.098Z,97950.00
2022-10-22T04:48:09.933Z,97945.00
2022-10-22T04:50:44.286Z,97946.00
2022-10-22T04:53:19.391Z,97962.00
2022-10-22T04:55:54.635Z,97946.00
2022-10-22T04:58:30.190Z,97949.00
2022-10-22T05:01:15.786Z,97947.00
2022-10-22T05:03:55.130Z,97956.00
2022-10-22T05:06:36.008Z,97953.00
2022-10-22T05:09:39.393Z,97959.00
2022-10-22T05:12:14.177Z,97969.00
2022-10-22T05:14:57.813Z,97963.00
2022-10-22T05:17:54.334Z,97976.00
2022-10-22T05:20:30.781Z,97958.00
2022-10-22T05:23:05.982Z,97960.00
2022-10-22T05:25:46.545Z,97975.00
2022-10-22T05:28:21.266Z,97969.00
2022-10-22T05:30:59.687Z,97991.00
2022-10-22T05:33:35.353Z,97978.00
2022-10-22T05:36:14.975Z,98001.00
2022-10-22T05:38:52.628Z,98011.00
2022-10-22T05:41:28.875Z,98013.00
2022-10-22T05:44:05.238Z,98022.00
2022-10-22T05:46:52.873Z,98031.00
2022-10-22T05:49:41.235Z,98040.00
2022-10-22T05:52:25.077Z,98050.00
2022-10-22T05:55:09.981Z,98046.00
2022-10-22T05:57:53.069Z,98047.00
2022-10-22T06:00:34.675Z,98052.00
2022-10-22T06:03:12.323Z,98054.00
2022-10-22T06:05:47.591Z,98055.00
2022-10-22T06:09:43.681Z,98065.00
2022-10-22T06:17:14.453Z,98081.00
2022-10-22T06:19:53.880Z,98088.00
2022-10-22T06:22:33.549Z,98107.00
2022-10-22T06:25:09.608Z,98100.00
2022-10-22T06:27:44.771Z,98098.00
2022-10-22T06:30:20.357Z,98111.00
2022-10-22T06:33:00.330Z,98128.00
2022-10-22T06:36:32.679Z,98122.00
2022-10-22T06:44:00.250Z,98117.00
2022-10-22T06:46:57.894Z,98117.00
2022-10-22T06:49:37.983Z,98132.00
2022-10-22T06:52:28.477Z,98138.00
2022-10-22T06:55:21.165Z,98135.00
2022-10-22T06:57:58.090Z,98155.00
2022-10-22T07:03:13.808Z,98155.00
2022-10-22T07:10:31.580Z,98168.00
2022-10-22T07:13:09.567Z,98154.00
2022-10-22T07:16:04.020Z,98163.00
2022-10-22T07:23:09.265Z,98166.00
2022-10-22T07:26:48.324Z,98177.00
2022-10-22T07:34:44.732Z,98176.00
2022-10-22T07:37:23.735Z,98166.00
2022-10-22T07:56:49.922Z,98210.00
2022-10-22T07:59:24.577Z,98205.00
2022-10-22T08:06:13.826Z,98212.00
2022-10-22T08:08:57.814Z,98233.00
2022-10-22T08:15:47.258Z,98237.00
2022-10-22T08:22:27.277Z,98240.00
2022-10-22T08:25:11.454Z,98232.00
2022-10-22T08:27:51.381Z,98235.00
2022-10-22T08:30:29.874Z,98233.00
2022-10-22T08:33:11.371Z,98238.00
2022-10-22T08:36:33.524Z,98220.00
2022-10-22T08:39:08.243Z,98232.00
2022-10-22T08:46:15.658Z,98224.00
2022-10-22T08:50:07.662Z,98226.00
2022-10-22T08:52:46.059Z,98233.00
2022-10-22T08:55:21.923Z,98240.00
2022-10-22T09:02:02.951Z,98238.00
2022-10-22T09:09:16.664Z,98249.00
2022-10-22T09:11:53.779Z,98236.00
2022-10-22T09:15:42.619Z,98249.00
2022-10-22T09:19:21.818Z,98263.00
2022-10-22T09:26:27.841Z,98241.00
2022-10-22T09:33:52.036Z,98259.00
2022-10-22T09:37:20.464Z,98262.00
2022-10-22T09:49:16.992Z,98267.00
2022-10-22T09:51:56.192Z,98269.00
2022-10-22T09:54:54.215Z,98280.00
2022-10-22T09:57:38.740Z,98283.00
2022-10-22T10:00:28.830Z,98270.00
2022-10-22T10:03:29.357Z,98284.00
2022-10-22T10:06:57.309Z,98290.00
2022-10-22T10:09:37.113Z,98292.00
2022-10-22T10:12:40.848Z,98287.00
2022-10-22T10:15:38.002Z,98287.00
2022-10-22T10:18:37.942Z,98285.00
2022-10-22T10:21:51.487Z,98274.00
2022-10-22T10:29:04.845Z,98285.00
2022-10-22T10:36:03.712Z,98307.00
2022-10-22T10:39:04.047Z,98304.00
2022-10-22T10:42:22.746Z,98308.00
2022-10-22T10:45:28.362Z,98313.00
2022-10-22T10:48:25.924Z,98309.00
2022-10-22T10:55:32.204Z,98318.00
2022-10-22T11:03:01.825Z,98327.00
2022-10-22T11:10:03.108Z,98322.00
2022-10-22T11:29:05.484Z,98312.00
2022-10-22T11:35:53.286Z,98297.00
2022-10-22T11:47:08.877Z,98309.00
2022-10-22T11:51:07.853Z,98301.00
2022-10-22T11:57:51.027Z,98289.00
2022-10-22T12:09:14.454Z,98271.00
2022-10-22T12:16:11.583Z,98271.00
2022-10-22T12:26:59.953Z,98288.00
2022-10-22T12:34:01.328Z,98285.00
2022-10-22T12:45:00.452Z,98286.00
2022-10-22T13:11:56.233Z,98275.00
2022-10-22T13:19:39.326Z,98266.00
2022-10-22T13:34:49.234Z,98261.00
2022-10-22T13:48:34.408Z,98262.00
2022-10-22T13:55:25.632Z,98266.00
2022-10-22T13:58:29.275Z,98264.00
2022-10-22T14:02:06.506Z,98266.00
2022-10-22T14:05:05.271Z,98268.00
2022-10-22T14:08:50.901Z,98270.00
2022-10-22T14:12:07.978Z,98256.00
2022-10-22T14:14:43.944Z,98252.00
2022-10-22T14:17:22.040Z,98260.00
2022-10-22T14:24:16.749Z,98270.00
2022-10-22T14:27:40.303Z,98275.00
2022-10-22T14:34:29.114Z,98282.00
2022-10-22T14:41:25.201Z,98273.00
2022-10-22T14:48:12.745Z,98280.00
2022-10-22T14:55:00.638Z,98285.00
2022-10-22T14:57:46.996Z,98274.00
2022-10-22T15:09:06.882Z,98293.00
2022-10-22T15:15:56.687Z,98295.00
2022-10-22T15:18:34.596Z,98294.00
2022-10-22T15:21:17.752Z,98294.00
2022-10-22T15:24:03.529Z,98287.00
2022-10-22T15:26:44.391Z,98289.00
2022-10-22T15:29:19.453Z,98294.00
2022-10-22T15:47:25.679Z,98289.00
2022-10-22T15:50:21.707Z,98280.00
2022-10-22T15:52:57.785Z,98291.00
2022-10-22T15:55:33.018Z,98261.00
2022-10-22T15:58:08.600Z,98289.00
2022-10-22T16:05:26.722Z,98296.00
2022-10-22T16:16:08.388Z,98291.00
2022-10-22T16:19:18.325Z,98285.00
2022-10-22T16:32:32.057Z,98285.00
2022-10-22T16:35:22.163Z,98286.00
2022-10-22T16:38:01.874Z,98303.00
2022-10-22T16:40:43.569Z,98304.00
2022-10-22T16:43:18.487Z,98297.00
2022-10-22T16:54:23.048Z,98303.00
2022-10-22T17:02:00.462Z,98321.00
2022-10-22T17:09:33.634Z,98329.00
2022-10-22T17:12:24.187Z,98324.00
2022-10-22T17:31:37.485Z,98326.00
2022-10-22T17:38:06.599Z,98327.00
2022-10-22T17:54:15.192Z,98340.00
2022-10-22T17:57:41.651Z,98349.00
2022-10-22T18:01:28.245Z,98348.00
2022-10-22T18:04:05.670Z,98353.00
2022-10-22T18:06:40.278Z,98342.00
2022-10-22T18:09:23.428Z,98344.00
2022-10-22T18:11:58.958Z,98343.00
2022-10-22T18:14:40.228Z,98357.00
2022-10-22T18:17:16.383Z,98342.00
2022-10-22T18:25:04.995Z,98348.00
2022-10-22T18:27:40.536Z,98323.00
2022-10-22T18:30:55.402Z,98326.00
2022-10-22T18:33:39.169Z,98337.00
2022-10-22T18:36:58.617Z,98329.00
2022-10-22T18:48:14.647Z,98304.00
2022-10-22T18:55:28.668Z,98297.00
2022-10-22T19:01:42.759Z,98331.00
2022-10-22T19:04:24.203Z,98330.00
2022-10-22T19:06:59.127Z,98332.00
2022-10-22T19:09:59.601Z,98313.00
2022-10-22T19:12:34.028Z,98326.00
2022-10-22T19:15:11.673Z,98320.00
2022-10-22T19:17:46.053Z,98313.00
2022-10-22T19:20:24.703Z,98313.00
2022-10-22T19:23:00.450Z,98334.00
2022-10-22T19:25:40.193Z,98323.00
2022-10-22T19:28:14.711Z,98295.00
2022-10-22T19:30:49.553Z,98308.00
2022-10-22T19:33:33.009Z,98317.00
2022-10-22T19:36:28.697Z,98326.00
2022-10-22T19:39:10.307Z,98313.00
2022-10-22T19:45:57.687Z,98319.00
2022-10-22T19:48:57.822Z,98324.00
2022-10-22T19:51:35.997Z,98301.00
2022-10-22T19:54:19.031Z,98313.00
2022-10-22T19:57:22.415Z,98317.00
2022-10-22T20:00:17.863Z,98328.00
2022-10-22T20:03:01.179Z,98330.00
2022-10-22T20:06:27.403Z,98319.00
2022-10-22T20:15:11.964Z,98319.00
2022-10-22T20:17:47.530Z,98318.00
2022-10-22T20:26:28.626Z,98335.00
2022-10-22T20:32:36.379Z,98323.00
2022-10-22T20:35:11.935Z,98323.00
2022-10-22T20:37:52.549Z,98336.00
2022-10-22T20:40:39.686Z,98332.00
2022-10-22T20:43:24.632Z,98336.00
2022-10-22T20:46:08.424Z,98310.00
2022-10-22T20:48:55.922Z,98318.00
2022-10-22T20:51:31.405Z,98318.00
2022-10-22T20:54:22.615Z,98323.00
2022-10-22T20:57:00.006Z,98317.00
2022-10-22T20:59:47.726Z,98317.00
2022-10-22T21:02:23.038Z,98320.00
2022-10-22T21:04:58.253Z,98299.00
2022-10-22T21:07:34.099Z,98311.00
2022-10-22T21:10:10.110Z,98305.00
2022-10-22T21:12:45.758Z,98320.00
2022-10-22T21:15:22.550Z,98323.00
2022-10-22T21:17:58.072Z,98325.00
2022-10-22T21:20:35.108Z,98327.00
2022-10-22T21:24:20.252Z,98313.00
2022-10-22T21:27:28.063Z,98315.00
2022-10-22T21:30:17.511Z,98320.00
2022-10-22T21:32:56.117Z,98315.00
2022-10-22T21:35:34.571Z,98310.00
2022-10-22T21:38:27.756Z,98332.00
2022-10-22T21:41:06.762Z,98327.00
2022-10-22T21:43:58.921Z,98327.00
2022-10-22T21:46:46.139Z,98331.00
2022-10-22T21:50:01.469Z,98324.00
2022-10-22T21:52:40.121Z,98318.00
2022-10-22T21:55:14.403Z,98324.00
2022-10-22T21:57:48.955Z,98330.00
2022-10-22T22:01:38.121Z,98316.00
2022-10-22T22:04:22.088Z,98309.00
2022-10-22T22:06:57.926Z,98309.00
2022-10-22T22:09:34.113Z,98314.00
2022-10-22T22:12:09.488Z,98318.00
2022-10-22T22:14:44.026Z,98316.00
2022-10-22T22:17:18.688Z,98318.00
2022-10-22T22:19:52.976Z,98307.00
2022-10-22T22:22:29.094Z,98292.00
2022-10-22T22:25:04.364Z,98312.00
2022-10-22T22:27:38.933Z,98318.00
2022-10-22T22:30:13.919Z,98299.00
2022-10-22T22:33:15.630Z,98298.00
2022-10-22T22:35:52.117Z,98298.00
2022-10-22T22:38:55.465Z,98308.00
2022-10-22T22:41:40.428Z,98297.00
2022-10-22T22:44:16.799Z,98298.00
2022-10-22T22:47:04.314Z,98301.00
2022-10-22T22:49:38.730Z,98299.00
2022-10-22T22:52:13.264Z,98305.00
2022-10-22T22:54:59.725Z,98302.00
2022-10-22T22:57:52.059Z,98293.00
2022-10-22T23:00:26.503Z,98287.00
2022-10-22T23:03:10.176Z,98274.00
2022-10-22T23:05:46.156Z,98275.00
2022-10-22T23:08:22.066Z,98282.00
2022-10-22T23:11:04.137Z,98264.00
2022-10-22T23:13:39.550Z,98272.00
2022-10-22T23:16:19.296Z,98272.00
2022-10-22T23:18:55.913Z,98263.00
2022-10-22T23:21:37.227Z,98264.00
2022-10-22T23:24:15.284Z,98262.00
2022-10-22T23:26:53.807Z,98256.00
2022-10-22T23:29:37.446Z,98251.00
2022-10-22T23:32:16.142Z,98254.00
2022-10-22T23:34:52.188Z,98255.00
2022-10-22T23:37:28.132Z,98252.00
2022-10-22T23:40:04.326Z,98261.00
2022-10-22T23:42:53.784Z,98249.00
2022-10-22T23:45:28.208Z,98251.00
2022-10-22T23:48:02.529Z,98245.00
2022-10-22T23:50:38.315Z,98243.00
2022-10-22T23:53:12.750Z,98243.00
2022-10-22T23:55:47.103Z,98232.00
2022-10-22T23:58:23.693Z,98228.00
